sensor_id;sensor_type;location;lat;lon;timestamp;P1;durP1;ratioP1;P2;durP2;ratioP2
74898;SDS011;63458;48.210;16.338;2023-11-21T00:00:29;23.02;;;11.80;;
74898;SDS011;63458;48.210;16.338;2023-11-21T00:02:55;12.02;;;4.30;;
74898;SDS011;63458;48.210;16.338;2023-11-21T00:05:21;5.20;;;2.33;;
74898;SDS011;63458;48.210;16.338;2023-11-21T00:07:48;6.00;;;2.10;;
74898;SDS011;63458;48.210;16.338;2023-11-21T00:10:14;7.47;;;2.42;;
74898;SDS011;63458;48.210;16.338;2023-11-21T00:12:41;4.65;;;1.70;;
74898;SDS011;63458;48.210;16.338;2023-11-21T00:15:07;5.82;;;2.00;;
74898;SDS011;63458;48.210;16.338;2023-11-21T00:17:37;8.30;;;2.30;;
74898;SDS011;63458;48.210;16.338;2023-11-21T00:20:03;5.18;;;2.15;;
74898;SDS011;63458;48.210;16.338;2023-11-21T00:22:31;5.10;;;2.05;;
74898;SDS011;63458;48.210;16.338;2023-11-21T00:24:57;7.03;;;1.98;;
74898;SDS011;63458;48.210;16.338;2023-11-21T00:27:23;6.97;;;1.90;;
74898;SDS011;63458;48.210;16.338;2023-11-21T00:29:49;4.80;;;1.77;;
74898;SDS011;63458;48.210;16.338;2023-11-21T00:32:15;6.20;;;1.80;;
74898;SDS011;63458;48.210;16.338;2023-11-21T00:34:41;6.57;;;2.20;;
74898;SDS011;63458;48.210;16.338;2023-11-21T00:37:07;8.38;;;2.42;;
74898;SDS011;63458;48.210;16.338;2023-11-21T00:39:33;7.95;;;2.15;;
74898;SDS011;63458;48.210;16.338;2023-11-21T00:42:00;9.45;;;2.38;;
74898;SDS011;63458;48.210;16.338;2023-11-21T00:44:26;9.02;;;2.50;;
74898;SDS011;63458;48.210;16.338;2023-11-21T00:46:52;5.80;;;2.00;;
74898;SDS011;63458;48.210;16.338;2023-11-21T00:49:19;8.45;;;2.30;;
74898;SDS011;63458;48.210;16.338;2023-11-21T00:51:45;7.35;;;2.10;;
74898;SDS011;63458;48.210;16.338;2023-11-21T00:54:11;7.35;;;2.20;;
74898;SDS011;63458;48.210;16.338;2023-11-21T00:56:37;6.93;;;2.03;;
74898;SDS011;63458;48.210;16.338;2023-11-21T00:59:05;5.22;;;2.10;;
74898;SDS011;63458;48.210;16.338;2023-11-21T01:01:32;6.50;;;2.08;;
74898;SDS011;63458;48.210;16.338;2023-11-21T01:03:58;5.78;;;2.30;;
74898;SDS011;63458;48.210;16.338;2023-11-21T01:06:24;6.30;;;1.88;;
74898;SDS011;63458;48.210;16.338;2023-11-21T01:08:50;7.22;;;2.47;;
74898;SDS011;63458;48.210;16.338;2023-11-21T01:11:16;7.50;;;2.20;;
74898;SDS011;63458;48.210;16.338;2023-11-21T01:13:42;9.43;;;2.50;;
74898;SDS011;63458;48.210;16.338;2023-11-21T01:16:09;6.28;;;1.90;;
74898;SDS011;63458;48.210;16.338;2023-11-21T01:18:36;4.97;;;2.00;;
74898;SDS011;63458;48.210;16.338;2023-11-21T01:21:02;4.93;;;2.00;;
74898;SDS011;63458;48.210;16.338;2023-11-21T01:23:29;7.80;;;2.30;;
74898;SDS011;63458;48.210;16.338;2023-11-21T01:25:58;5.65;;;2.35;;
74898;SDS011;63458;48.210;16.338;2023-11-21T01:28:24;5.97;;;2.33;;
74898;SDS011;63458;48.210;16.338;2023-11-21T01:30:50;6.43;;;1.92;;
74898;SDS011;63458;48.210;16.338;2023-11-21T01:33:16;6.57;;;2.35;;
74898;SDS011;63458;48.210;16.338;2023-11-21T01:35:42;7.28;;;2.35;;
74898;SDS011;63458;48.210;16.338;2023-11-21T01:38:08;4.95;;;1.88;;
74898;SDS011;63458;48.210;16.338;2023-11-21T01:40:34;5.18;;;2.28;;
74898;SDS011;63458;48.210;16.338;2023-11-21T01:43:00;5.32;;;2.13;;
74898;SDS011;63458;48.210;16.338;2023-11-21T01:45:30;6.15;;;2.22;;
74898;SDS011;63458;48.210;16.338;2023-11-21T01:47:58;6.97;;;2.30;;
74898;SDS011;63458;48.210;16.338;2023-11-21T01:50:25;3.83;;;1.67;;
74898;SDS011;63458;48.210;16.338;2023-11-21T01:52:51;10.30;;;2.55;;
74898;SDS011;63458;48.210;16.338;2023-11-21T01:55:17;5.20;;;1.80;;
74898;SDS011;63458;48.210;16.338;2023-11-21T01:57:44;10.40;;;2.80;;
74898;SDS011;63458;48.210;16.338;2023-11-21T02:00:11;4.35;;;1.88;;
74898;SDS011;63458;48.210;16.338;2023-11-21T02:02:46;7.40;;;2.10;;
74898;SDS011;63458;48.210;16.338;2023-11-21T02:05:16;7.20;;;1.90;;
74898;SDS011;63458;48.210;16.338;2023-11-21T02:07:43;7.40;;;2.53;;
74898;SDS011;63458;48.210;16.338;2023-11-21T02:10:10;6.93;;;2.20;;
74898;SDS011;63458;48.210;16.338;2023-11-21T02:12:40;5.15;;;2.33;;
74898;SDS011;63458;48.210;16.338;2023-11-21T02:15:07;6.40;;;2.20;;
74898;SDS011;63458;48.210;16.338;2023-11-21T02:17:40;6.25;;;2.00;;
74898;SDS011;63458;48.210;16.338;2023-11-21T02:20:06;5.60;;;2.10;;
74898;SDS011;63458;48.210;16.338;2023-11-21T02:22:32;7.45;;;1.92;;
74898;SDS011;63458;48.210;16.338;2023-11-21T02:25:00;6.35;;;1.90;;
74898;SDS011;63458;48.210;16.338;2023-11-21T02:27:27;7.28;;;2.65;;
74898;SDS011;63458;48.210;16.338;2023-11-21T02:29:53;4.72;;;1.70;;
74898;SDS011;63458;48.210;16.338;2023-11-21T02:32:19;7.45;;;2.10;;
74898;SDS011;63458;48.210;16.338;2023-11-21T02:37:13;5.35;;;1.70;;
74898;SDS011;63458;48.210;16.338;2023-11-21T02:39:39;5.03;;;1.83;;
74898;SDS011;63458;48.210;16.338;2023-11-21T02:42:05;6.50;;;2.05;;
74898;SDS011;63458;48.210;16.338;2023-11-21T02:44:31;6.60;;;2.28;;
74898;SDS011;63458;48.210;16.338;2023-11-21T02:46:57;7.80;;;2.35;;
74898;SDS011;63458;48.210;16.338;2023-11-21T02:49:26;5.60;;;2.42;;
74898;SDS011;63458;48.210;16.338;2023-11-21T02:51:56;5.10;;;2.00;;
74898;SDS011;63458;48.210;16.338;2023-11-21T02:54:22;8.50;;;2.72;;
74898;SDS011;63458;48.210;16.338;2023-11-21T02:56:48;6.40;;;2.20;;
74898;SDS011;63458;48.210;16.338;2023-11-21T02:59:15;5.93;;;2.05;;
74898;SDS011;63458;48.210;16.338;2023-11-21T03:01:44;6.47;;;2.10;;
74898;SDS011;63458;48.210;16.338;2023-11-21T03:04:11;6.03;;;2.15;;
74898;SDS011;63458;48.210;16.338;2023-11-21T03:06:42;6.38;;;2.58;;
74898;SDS011;63458;48.210;16.338;2023-11-21T03:09:09;6.25;;;2.53;;
74898;SDS011;63458;48.210;16.338;2023-11-21T03:11:36;6.95;;;2.30;;
74898;SDS011;63458;48.210;16.338;2023-11-21T03:14:02;6.53;;;2.42;;
74898;SDS011;63458;48.210;16.338;2023-11-21T03:16:28;6.18;;;2.28;;
74898;SDS011;63458;48.210;16.338;2023-11-21T03:18:56;8.57;;;2.80;;
74898;SDS011;63458;48.210;16.338;2023-11-21T03:21:22;5.35;;;2.17;;
74898;SDS011;63458;48.210;16.338;2023-11-21T03:23:48;6.70;;;2.60;;
74898;SDS011;63458;48.210;16.338;2023-11-21T03:26:14;8.70;;;2.30;;
74898;SDS011;63458;48.210;16.338;2023-11-21T03:28:40;7.72;;;2.10;;
74898;SDS011;63458;48.210;16.338;2023-11-21T03:31:06;7.20;;;2.13;;
74898;SDS011;63458;48.210;16.338;2023-11-21T03:33:33;5.90;;;2.10;;
74898;SDS011;63458;48.210;16.338;2023-11-21T03:36:00;5.75;;;2.10;;
74898;SDS011;63458;48.210;16.338;2023-11-21T03:38:26;7.45;;;2.22;;
74898;SDS011;63458;48.210;16.338;2023-11-21T03:40:52;8.77;;;3.20;;
74898;SDS011;63458;48.210;16.338;2023-11-21T03:43:18;6.13;;;2.00;;
74898;SDS011;63458;48.210;16.338;2023-11-21T03:45:44;4.80;;;1.83;;
74898;SDS011;63458;48.210;16.338;2023-11-21T03:48:12;5.03;;;1.77;;
74898;SDS011;63458;48.210;16.338;2023-11-21T03:50:38;6.70;;;1.90;;
74898;SDS011;63458;48.210;16.338;2023-11-21T03:53:04;4.95;;;1.63;;
74898;SDS011;63458;48.210;16.338;2023-11-21T03:55:30;6.63;;;1.90;;
74898;SDS011;63458;48.210;16.338;2023-11-21T03:57:57;7.15;;;2.22;;
74898;SDS011;63458;48.210;16.338;2023-11-21T04:00:23;4.13;;;1.67;;
74898;SDS011;63458;48.210;16.338;2023-11-21T04:02:49;6.63;;;2.15;;
74898;SDS011;63458;48.210;16.338;2023-11-21T04:05:16;4.47;;;1.77;;
74898;SDS011;63458;48.210;16.338;2023-11-21T04:07:42;8.27;;;2.65;;
74898;SDS011;63458;48.210;16.338;2023-11-21T04:10:08;6.07;;;1.70;;
74898;SDS011;63458;48.210;16.338;2023-11-21T04:12:37;6.90;;;1.98;;
74898;SDS011;63458;48.210;16.338;2023-11-21T04:15:03;5.65;;;1.70;;
74898;SDS011;63458;48.210;16.338;2023-11-21T04:17:29;6.15;;;1.65;;
74898;SDS011;63458;48.210;16.338;2023-11-21T04:19:55;5.43;;;1.67;;
74898;SDS011;63458;48.210;16.338;2023-11-21T04:22:21;5.75;;;2.03;;
74898;SDS011;63458;48.210;16.338;2023-11-21T04:24:47;5.57;;;1.92;;
74898;SDS011;63458;48.210;16.338;2023-11-21T04:27:14;6.22;;;2.35;;
74898;SDS011;63458;48.210;16.338;2023-11-21T04:29:43;6.15;;;1.67;;
74898;SDS011;63458;48.210;16.338;2023-11-21T04:32:09;6.13;;;1.73;;
74898;SDS011;63458;48.210;16.338;2023-11-21T04:34:35;9.18;;;2.33;;
74898;SDS011;63458;48.210;16.338;2023-11-21T04:37:01;8.55;;;2.28;;
74898;SDS011;63458;48.210;16.338;2023-11-21T04:39:28;7.05;;;2.78;;
74898;SDS011;63458;48.210;16.338;2023-11-21T04:41:54;6.57;;;2.08;;
74898;SDS011;63458;48.210;16.338;2023-11-21T04:44:20;6.38;;;2.10;;
74898;SDS011;63458;48.210;16.338;2023-11-21T04:46:46;4.43;;;1.73;;
74898;SDS011;63458;48.210;16.338;2023-11-21T04:49:12;8.70;;;2.33;;
74898;SDS011;63458;48.210;16.338;2023-11-21T04:51:38;8.63;;;2.33;;
74898;SDS011;63458;48.210;16.338;2023-11-21T04:54:04;8.02;;;2.20;;
74898;SDS011;63458;48.210;16.338;2023-11-21T04:56:30;5.05;;;2.20;;
74898;SDS011;63458;48.210;16.338;2023-11-21T04:58:56;6.97;;;2.13;;
74898;SDS011;63458;48.210;16.338;2023-11-21T05:01:23;7.13;;;2.20;;
74898;SDS011;63458;48.210;16.338;2023-11-21T05:03:49;7.40;;;2.38;;
74898;SDS011;63458;48.210;16.338;2023-11-21T05:06:15;8.10;;;2.60;;
74898;SDS011;63458;48.210;16.338;2023-11-21T05:08:41;6.05;;;2.08;;
74898;SDS011;63458;48.210;16.338;2023-11-21T05:11:07;7.55;;;2.35;;
74898;SDS011;63458;48.210;16.338;2023-11-21T05:13:35;6.57;;;2.60;;
74898;SDS011;63458;48.210;16.338;2023-11-21T05:16:01;6.70;;;2.30;;
74898;SDS011;63458;48.210;16.338;2023-11-21T05:18:29;7.70;;;2.67;;
74898;SDS011;63458;48.210;16.338;2023-11-21T05:20:55;9.63;;;2.42;;
74898;SDS011;63458;48.210;16.338;2023-11-21T05:23:21;8.32;;;2.20;;
74898;SDS011;63458;48.210;16.338;2023-11-21T05:25:47;7.38;;;2.25;;
74898;SDS011;63458;48.210;16.338;2023-11-21T05:28:13;11.27;;;2.58;;
74898;SDS011;63458;48.210;16.338;2023-11-21T05:30:39;6.47;;;2.70;;
74898;SDS011;63458;48.210;16.338;2023-11-21T05:33:05;6.70;;;2.20;;
74898;SDS011;63458;48.210;16.338;2023-11-21T05:35:31;6.90;;;2.85;;
74898;SDS011;63458;48.210;16.338;2023-11-21T05:37:57;9.73;;;2.60;;
74898;SDS011;63458;48.210;16.338;2023-11-21T05:40:23;6.07;;;2.40;;
74898;SDS011;63458;48.210;16.338;2023-11-21T05:42:51;10.23;;;2.58;;
74898;SDS011;63458;48.210;16.338;2023-11-21T05:45:17;5.65;;;2.35;;
74898;SDS011;63458;48.210;16.338;2023-11-21T05:47:44;8.20;;;2.90;;
74898;SDS011;63458;48.210;16.338;2023-11-21T05:50:12;8.55;;;3.22;;
74898;SDS011;63458;48.210;16.338;2023-11-21T05:52:39;9.88;;;2.95;;
74898;SDS011;63458;48.210;16.338;2023-11-21T05:55:05;8.20;;;2.47;;
74898;SDS011;63458;48.210;16.338;2023-11-21T05:57:35;7.82;;;2.63;;
74898;SDS011;63458;48.210;16.338;2023-11-21T06:00:04;9.25;;;2.55;;
74898;SDS011;63458;48.210;16.338;2023-11-21T06:02:41;7.55;;;2.47;;
74898;SDS011;63458;48.210;16.338;2023-11-21T06:05:07;5.88;;;2.53;;
74898;SDS011;63458;48.210;16.338;2023-11-21T06:07:34;9.50;;;2.53;;
74898;SDS011;63458;48.210;16.338;2023-11-21T06:10:01;10.73;;;2.70;;
74898;SDS011;63458;48.210;16.338;2023-11-21T06:12:28;6.70;;;2.42;;
74898;SDS011;63458;48.210;16.338;2023-11-21T06:14:54;7.25;;;2.55;;
74898;SDS011;63458;48.210;16.338;2023-11-21T06:17:20;7.20;;;2.38;;
74898;SDS011;63458;48.210;16.338;2023-11-21T06:19:47;9.10;;;2.60;;
74898;SDS011;63458;48.210;16.338;2023-11-21T06:22:13;7.82;;;2.40;;
74898;SDS011;63458;48.210;16.338;2023-11-21T06:24:39;7.65;;;2.78;;
74898;SDS011;63458;48.210;16.338;2023-11-21T06:27:07;7.38;;;2.83;;
74898;SDS011;63458;48.210;16.338;2023-11-21T06:29:33;10.52;;;3.33;;
74898;SDS011;63458;48.210;16.338;2023-11-21T06:31:59;7.30;;;2.55;;
74898;SDS011;63458;48.210;16.338;2023-11-21T06:34:25;8.15;;;2.67;;
74898;SDS011;63458;48.210;16.338;2023-11-21T06:36:52;31.83;;;14.32;;
74898;SDS011;63458;48.210;16.338;2023-11-21T06:39:18;33.10;;;17.63;;
74898;SDS011;63458;48.210;16.338;2023-11-21T06:41:47;14.90;;;7.82;;
74898;SDS011;63458;48.210;16.338;2023-11-21T06:44:13;24.00;;;12.13;;
74898;SDS011;63458;48.210;16.338;2023-11-21T06:46:39;8.57;;;3.55;;
74898;SDS011;63458;48.210;16.338;2023-11-21T06:49:07;8.77;;;2.63;;
74898;SDS011;63458;48.210;16.338;2023-11-21T06:51:33;9.77;;;2.78;;
74898;SDS011;63458;48.210;16.338;2023-11-21T06:53:59;10.60;;;3.08;;
74898;SDS011;63458;48.210;16.338;2023-11-21T06:56:25;7.40;;;2.60;;
74898;SDS011;63458;48.210;16.338;2023-11-21T06:58:51;16.88;;;8.95;;
74898;SDS011;63458;48.210;16.338;2023-11-21T07:01:19;37.03;;;19.67;;
74898;SDS011;63458;48.210;16.338;2023-11-21T07:03:45;136.77;;;74.88;;
74898;SDS011;63458;48.210;16.338;2023-11-21T07:06:11;130.65;;;69.40;;
74898;SDS011;63458;48.210;16.338;2023-11-21T07:08:37;66.47;;;36.10;;
74898;SDS011;63458;48.210;16.338;2023-11-21T07:11:03;45.83;;;23.55;;
74898;SDS011;63458;48.210;16.338;2023-11-21T07:13:30;39.40;;;19.50;;
74898;SDS011;63458;48.210;16.338;2023-11-21T07:15:57;24.55;;;11.10;;
74898;SDS011;63458;48.210;16.338;2023-11-21T07:18:23;11.30;;;3.92;;
74898;SDS011;63458;48.210;16.338;2023-11-21T07:20:49;9.35;;;2.85;;
74898;SDS011;63458;48.210;16.338;2023-11-21T07:23:16;8.63;;;2.72;;
74898;SDS011;63458;48.210;16.338;2023-11-21T07:25:42;9.57;;;3.53;;
74898;SDS011;63458;48.210;16.338;2023-11-21T07:28:09;7.72;;;2.95;;
74898;SDS011;63458;48.210;16.338;2023-11-21T07:30:35;8.70;;;2.45;;
74898;SDS011;63458;48.210;16.338;2023-11-21T07:33:01;8.98;;;2.90;;
74898;SDS011;63458;48.210;16.338;2023-11-21T07:35:27;9.10;;;3.08;;
74898;SDS011;63458;48.210;16.338;2023-11-21T07:37:53;7.15;;;2.35;;
74898;SDS011;63458;48.210;16.338;2023-11-21T07:40:19;7.32;;;2.60;;
74898;SDS011;63458;48.210;16.338;2023-11-21T07:42:45;89.97;;;45.50;;
74898;SDS011;63458;48.210;16.338;2023-11-21T07:45:11;93.55;;;50.97;;
74898;SDS011;63458;48.210;16.338;2023-11-21T07:47:37;80.25;;;44.08;;
74898;SDS011;63458;48.210;16.338;2023-11-21T07:50:04;82.43;;;50.45;;
74898;SDS011;63458;48.210;16.338;2023-11-21T07:52:30;74.43;;;40.30;;
74898;SDS011;63458;48.210;16.338;2023-11-21T07:54:56;36.90;;;22.38;;
74898;SDS011;63458;48.210;16.338;2023-11-21T07:57:22;19.40;;;9.93;;
74898;SDS011;63458;48.210;16.338;2023-11-21T07:59:48;12.75;;;4.15;;
74898;SDS011;63458;48.210;16.338;2023-11-21T08:02:14;5.88;;;2.65;;
74898;SDS011;63458;48.210;16.338;2023-11-21T08:07:08;9.07;;;2.70;;
74898;SDS011;63458;48.210;16.338;2023-11-21T08:09:35;6.18;;;2.53;;
74898;SDS011;63458;48.210;16.338;2023-11-21T08:12:01;7.18;;;2.88;;
74898;SDS011;63458;48.210;16.338;2023-11-21T08:14:27;7.45;;;2.75;;
74898;SDS011;63458;48.210;16.338;2023-11-21T08:16:53;8.40;;;2.83;;
74898;SDS011;63458;48.210;16.338;2023-11-21T08:19:22;5.82;;;2.50;;
74898;SDS011;63458;48.210;16.338;2023-11-21T08:21:50;8.02;;;2.80;;
74898;SDS011;63458;48.210;16.338;2023-11-21T08:24:16;10.63;;;2.63;;
74898;SDS011;63458;48.210;16.338;2023-11-21T08:26:42;7.10;;;2.35;;
74898;SDS011;63458;48.210;16.338;2023-11-21T08:29:08;8.00;;;3.03;;
74898;SDS011;63458;48.210;16.338;2023-11-21T08:31:34;9.35;;;3.15;;
74898;SDS011;63458;48.210;16.338;2023-11-21T08:34:01;9.38;;;2.80;;
74898;SDS011;63458;48.210;16.338;2023-11-21T08:36:28;8.45;;;2.75;;
74898;SDS011;63458;48.210;16.338;2023-11-21T08:38:54;7.47;;;2.20;;
74898;SDS011;63458;48.210;16.338;2023-11-21T08:41:20;7.40;;;2.28;;
74898;SDS011;63458;48.210;16.338;2023-11-21T08:43:47;6.43;;;2.25;;
74898;SDS011;63458;48.210;16.338;2023-11-21T08:46:13;8.68;;;3.40;;
74898;SDS011;63458;48.210;16.338;2023-11-21T08:48:40;9.43;;;2.67;;
74898;SDS011;63458;48.210;16.338;2023-11-21T08:51:09;8.60;;;2.88;;
74898;SDS011;63458;48.210;16.338;2023-11-21T08:53:36;9.65;;;3.30;;
74898;SDS011;63458;48.210;16.338;2023-11-21T08:56:02;7.60;;;2.40;;
74898;SDS011;63458;48.210;16.338;2023-11-21T08:58:29;8.50;;;2.92;;
74898;SDS011;63458;48.210;16.338;2023-11-21T09:00:57;7.30;;;2.95;;
74898;SDS011;63458;48.210;16.338;2023-11-21T09:03:23;7.25;;;2.50;;
74898;SDS011;63458;48.210;16.338;2023-11-21T09:05:50;8.45;;;2.90;;
74898;SDS011;63458;48.210;16.338;2023-11-21T09:08:16;7.75;;;2.40;;
74898;SDS011;63458;48.210;16.338;2023-11-21T09:10:42;9.85;;;2.95;;
74898;SDS011;63458;48.210;16.338;2023-11-21T09:13:12;8.68;;;3.47;;
74898;SDS011;63458;48.210;16.338;2023-11-21T09:15:38;6.32;;;2.50;;
74898;SDS011;63458;48.210;16.338;2023-11-21T09:18:04;10.10;;;2.70;;
74898;SDS011;63458;48.210;16.338;2023-11-21T09:20:30;7.18;;;2.47;;
74898;SDS011;63458;48.210;16.338;2023-11-21T09:22:56;6.07;;;2.38;;
74898;SDS011;63458;48.210;16.338;2023-11-21T09:25:22;7.63;;;2.20;;
74898;SDS011;63458;48.210;16.338;2023-11-21T09:27:48;7.93;;;2.20;;
74898;SDS011;63458;48.210;16.338;2023-11-21T09:30:14;5.90;;;2.30;;
74898;SDS011;63458;48.210;16.338;2023-11-21T09:32:41;7.25;;;2.30;;
74898;SDS011;63458;48.210;16.338;2023-11-21T09:35:10;5.90;;;1.70;;
74898;SDS011;63458;48.210;16.338;2023-11-21T09:37:38;5.57;;;1.40;;
74898;SDS011;63458;48.210;16.338;2023-11-21T09:40:05;6.18;;;1.80;;
74898;SDS011;63458;48.210;16.338;2023-11-21T09:42:41;5.18;;;1.88;;
74898;SDS011;63458;48.210;16.338;2023-11-21T09:45:13;6.80;;;1.90;;
74898;SDS011;63458;48.210;16.338;2023-11-21T09:47:41;6.68;;;1.88;;
74898;SDS011;63458;48.210;16.338;2023-11-21T09:50:08;5.97;;;2.03;;
74898;SDS011;63458;48.210;16.338;2023-11-21T09:52:49;7.32;;;1.83;;
74898;SDS011;63458;48.210;16.338;2023-11-21T09:55:20;4.78;;;1.75;;
74898;SDS011;63458;48.210;16.338;2023-11-21T09:57:50;5.03;;;1.75;;
74898;SDS011;63458;48.210;16.338;2023-11-21T10:00:16;3.97;;;1.70;;
74898;SDS011;63458;48.210;16.338;2023-11-21T10:02:48;7.70;;;1.65;;
74898;SDS011;63458;48.210;16.338;2023-11-21T10:05:15;5.03;;;1.60;;
74898;SDS011;63458;48.210;16.338;2023-11-21T10:07:43;4.80;;;1.75;;
74898;SDS011;63458;48.210;16.338;2023-11-21T10:12:35;6.68;;;1.80;;
74898;SDS011;63458;48.210;16.338;2023-11-21T10:15:03;6.43;;;1.60;;
74898;SDS011;63458;48.210;16.338;2023-11-21T10:17:34;4.55;;;1.75;;
74898;SDS011;63458;48.210;16.338;2023-11-21T10:20:08;5.40;;;1.58;;
74898;SDS011;63458;48.210;16.338;2023-11-21T10:22:41;5.22;;;1.70;;
74898;SDS011;63458;48.210;16.338;2023-11-21T10:25:08;6.07;;;1.80;;
74898;SDS011;63458;48.210;16.338;2023-11-21T10:27:34;5.03;;;1.80;;
74898;SDS011;63458;48.210;16.338;2023-11-21T10:30:01;6.47;;;1.77;;
74898;SDS011;63458;48.210;16.338;2023-11-21T10:32:29;4.28;;;1.55;;
74898;SDS011;63458;48.210;16.338;2023-11-21T10:34:58;6.35;;;1.75;;
74898;SDS011;63458;48.210;16.338;2023-11-21T10:37:25;4.07;;;1.50;;
74898;SDS011;63458;48.210;16.338;2023-11-21T10:39:56;5.15;;;1.48;;
74898;SDS011;63458;48.210;16.338;2023-11-21T10:42:23;4.43;;;1.55;;
74898;SDS011;63458;48.210;16.338;2023-11-21T10:44:49;4.13;;;1.50;;
74898;SDS011;63458;48.210;16.338;2023-11-21T10:47:15;5.78;;;1.60;;
74898;SDS011;63458;48.210;16.338;2023-11-21T10:49:44;4.13;;;1.40;;
74898;SDS011;63458;48.210;16.338;2023-11-21T10:52:12;4.95;;;1.63;;
74898;SDS011;63458;48.210;16.338;2023-11-21T10:54:42;5.57;;;2.08;;
74898;SDS011;63458;48.210;16.338;2023-11-21T10:57:09;5.72;;;2.13;;
74898;SDS011;63458;48.210;16.338;2023-11-21T10:59:35;7.03;;;1.88;;
74898;SDS011;63458;48.210;16.338;2023-11-21T11:02:07;6.13;;;1.95;;
74898;SDS011;63458;48.210;16.338;2023-11-21T11:04:40;5.25;;;1.65;;
74898;SDS011;63458;48.210;16.338;2023-11-21T11:07:07;5.43;;;1.90;;
74898;SDS011;63458;48.210;16.338;2023-11-21T11:09:34;3.58;;;1.40;;
74898;SDS011;63458;48.210;16.338;2023-11-21T11:12:04;5.75;;;1.58;;
74898;SDS011;63458;48.210;16.338;2023-11-21T11:14:31;6.75;;;1.50;;
74898;SDS011;63458;48.210;16.338;2023-11-21T11:16:57;3.65;;;1.70;;
74898;SDS011;63458;48.210;16.338;2023-11-21T11:37:43;12.27;;;5.88;;
74898;SDS011;63458;48.210;16.338;2023-11-21T11:40:11;10.23;;;4.78;;
74898;SDS011;63458;48.210;16.338;2023-11-21T11:42:37;9.20;;;4.13;;
74898;SDS011;63458;48.210;16.338;2023-11-21T11:45:17;8.50;;;3.50;;
74898;SDS011;63458;48.210;16.338;2023-11-21T11:47:44;7.57;;;2.90;;
74898;SDS011;63458;48.210;16.338;2023-11-21T11:50:13;5.65;;;1.73;;
74898;SDS011;63458;48.210;16.338;2023-11-21T11:52:42;6.57;;;2.58;;
74898;SDS011;63458;48.210;16.338;2023-11-21T11:55:10;5.97;;;2.30;;
74898;SDS011;63458;48.210;16.338;2023-11-21T11:57:37;16.67;;;11.27;;
74898;SDS011;63458;48.210;16.338;2023-11-21T12:00:06;18.50;;;13.20;;
74898;SDS011;63458;48.210;16.338;2023-11-21T12:02:36;9.57;;;4.03;;
74898;SDS011;63458;48.210;16.338;2023-11-21T12:05:08;25.17;;;18.35;;
74898;SDS011;63458;48.210;16.338;2023-11-21T12:10:11;13.55;;;8.57;;
74898;SDS011;63458;48.210;16.338;2023-11-21T12:12:37;12.93;;;7.18;;
74898;SDS011;63458;48.210;16.338;2023-11-21T12:15:04;9.85;;;4.00;;
74898;SDS011;63458;48.210;16.338;2023-11-21T12:17:30;10.15;;;4.07;;
74898;SDS011;63458;48.210;16.338;2023-11-21T12:20:03;10.13;;;4.28;;
74898;SDS011;63458;48.210;16.338;2023-11-21T12:22:29;14.25;;;7.40;;
74898;SDS011;63458;48.210;16.338;2023-11-21T12:24:56;22.20;;;11.45;;
74898;SDS011;63458;48.210;16.338;2023-11-21T12:27:22;7.93;;;3.85;;
74898;SDS011;63458;48.210;16.338;2023-11-21T12:29:48;6.25;;;2.10;;
74898;SDS011;63458;48.210;16.338;2023-11-21T12:32:14;3.85;;;1.80;;
74898;SDS011;63458;48.210;16.338;2023-11-21T12:34:42;5.55;;;2.13;;
74898;SDS011;63458;48.210;16.338;2023-11-21T12:37:09;8.60;;;2.85;;
74898;SDS011;63458;48.210;16.338;2023-11-21T12:39:35;9.25;;;3.25;;
74898;SDS011;63458;48.210;16.338;2023-11-21T12:42:01;9.55;;;3.45;;
74898;SDS011;63458;48.210;16.338;2023-11-21T12:44:27;18.50;;;9.50;;
74898;SDS011;63458;48.210;16.338;2023-11-21T12:46:54;27.95;;;13.48;;
74898;SDS011;63458;48.210;16.338;2023-11-21T12:49:20;8.90;;;2.88;;
74898;SDS011;63458;48.210;16.338;2023-11-21T12:51:47;6.68;;;2.40;;
74898;SDS011;63458;48.210;16.338;2023-11-21T12:54:13;6.30;;;2.45;;
74898;SDS011;63458;48.210;16.338;2023-11-21T12:56:40;7.70;;;2.90;;
74898;SDS011;63458;48.210;16.338;2023-11-21T12:59:06;6.82;;;2.83;;
74898;SDS011;63458;48.210;16.338;2023-11-21T13:01:36;7.05;;;2.60;;
74898;SDS011;63458;48.210;16.338;2023-11-21T13:04:02;6.72;;;2.20;;
74898;SDS011;63458;48.210;16.338;2023-11-21T13:06:29;6.22;;;2.50;;
74898;SDS011;63458;48.210;16.338;2023-11-21T13:09:03;6.20;;;2.53;;
74898;SDS011;63458;48.210;16.338;2023-11-21T13:11:30;6.82;;;3.05;;
74898;SDS011;63458;48.210;16.338;2023-11-21T13:13:59;8.10;;;2.75;;
74898;SDS011;63458;48.210;16.338;2023-11-21T13:16:25;7.47;;;2.50;;
74898;SDS011;63458;48.210;16.338;2023-11-21T13:18:52;6.82;;;2.40;;
74898;SDS011;63458;48.210;16.338;2023-11-21T13:21:18;6.80;;;2.10;;
74898;SDS011;63458;48.210;16.338;2023-11-21T13:23:47;5.47;;;2.20;;
74898;SDS011;63458;48.210;16.338;2023-11-21T13:26:16;6.32;;;1.98;;
74898;SDS011;63458;48.210;16.338;2023-11-21T13:28:42;6.60;;;2.08;;
74898;SDS011;63458;48.210;16.338;2023-11-21T13:31:12;7.53;;;2.53;;
74898;SDS011;63458;48.210;16.338;2023-11-21T13:33:51;6.60;;;2.50;;
74898;SDS011;63458;48.210;16.338;2023-11-21T13:36:23;10.65;;;2.45;;
74898;SDS011;63458;48.210;16.338;2023-11-21T13:38:50;17.48;;;6.82;;
74898;SDS011;63458;48.210;16.338;2023-11-21T13:41:17;18.17;;;9.55;;
74898;SDS011;63458;48.210;16.338;2023-11-21T13:43:44;13.30;;;4.60;;
74898;SDS011;63458;48.210;16.338;2023-11-21T13:46:15;6.80;;;2.50;;
74898;SDS011;63458;48.210;16.338;2023-11-21T13:48:46;7.85;;;3.08;;
74898;SDS011;63458;48.210;16.338;2023-11-21T13:51:18;7.35;;;2.65;;
74898;SDS011;63458;48.210;16.338;2023-11-21T13:53:46;7.55;;;2.72;;
74898;SDS011;63458;48.210;16.338;2023-11-21T13:56:14;6.70;;;2.47;;
74898;SDS011;63458;48.210;16.338;2023-11-21T13:58:51;8.23;;;2.70;;
74898;SDS011;63458;48.210;16.338;2023-11-21T14:01:19;6.90;;;2.60;;
74898;SDS011;63458;48.210;16.338;2023-11-21T14:03:55;13.43;;;4.97;;
74898;SDS011;63458;48.210;16.338;2023-11-21T14:06:53;18.55;;;5.43;;
74898;SDS011;63458;48.210;16.338;2023-11-21T14:09:23;7.47;;;2.10;;
74898;SDS011;63458;48.210;16.338;2023-11-21T14:11:58;15.35;;;7.55;;
74898;SDS011;63458;48.210;16.338;2023-11-21T14:14:25;17.20;;;7.60;;
74898;SDS011;63458;48.210;16.338;2023-11-21T14:16:52;8.43;;;3.30;;
74898;SDS011;63458;48.210;16.338;2023-11-21T14:19:18;8.23;;;2.78;;
74898;SDS011;63458;48.210;16.338;2023-11-21T14:21:45;8.25;;;2.78;;
74898;SDS011;63458;48.210;16.338;2023-11-21T14:24:11;8.93;;;3.22;;
74898;SDS011;63458;48.210;16.338;2023-11-21T14:26:39;8.05;;;3.10;;
74898;SDS011;63458;48.210;16.338;2023-11-21T14:29:06;7.55;;;2.88;;
74898;SDS011;63458;48.210;16.338;2023-11-21T14:31:33;7.80;;;3.05;;
74898;SDS011;63458;48.210;16.338;2023-11-21T14:33:59;8.38;;;3.28;;
74898;SDS011;63458;48.210;16.338;2023-11-21T14:36:31;7.35;;;3.15;;
74898;SDS011;63458;48.210;16.338;2023-11-21T14:38:57;7.45;;;3.05;;
74898;SDS011;63458;48.210;16.338;2023-11-21T14:41:23;7.10;;;2.90;;
74898;SDS011;63458;48.210;16.338;2023-11-21T14:43:50;6.15;;;2.92;;
74898;SDS011;63458;48.210;16.338;2023-11-21T14:46:17;6.30;;;3.10;;
74898;SDS011;63458;48.210;16.338;2023-11-21T14:48:44;8.25;;;3.65;;
74898;SDS011;63458;48.210;16.338;2023-11-21T14:51:24;8.10;;;3.53;;
74898;SDS011;63458;48.210;16.338;2023-11-21T14:53:56;15.60;;;8.48;;
74898;SDS011;63458;48.210;16.338;2023-11-21T14:56:26;19.92;;;13.93;;
74898;SDS011;63458;48.210;16.338;2023-11-21T14:58:55;27.00;;;18.80;;